createdAt,value
2019-01-17T00:01:08.186Z,4.60
2019-01-17T00:03:54.557Z,4.60
2019-01-17T00:06:39.604Z,4.60
2019-01-17T00:09:09.926Z,4.70
2019-01-17T00:11:40.148Z,4.70
2019-01-17T00:14:19.424Z,4.80
2019-01-17T00:16:49.542Z,4.80
2019-01-17T00:19:25.812Z,4.70
2019-01-17T00:21:58.734Z,4.70
2019-01-17T00:24:45.299Z,4.70
2019-01-17T00:27:30.426Z,4.70
2019-01-17T00:30:09.889Z,4.70
2019-01-17T00:32:40.164Z,4.70
2019-01-17T00:35:10.526Z,4.60
2019-01-17T00:37:46.416Z,4.50
2019-01-17T00:40:28.420Z,4.50
2019-01-17T00:43:04.222Z,4.50
2019-01-17T00:45:43.435Z,4.50
2019-01-17T00:48:29.859Z,4.30
2019-01-17T00:51:02.611Z,4.20
2019-01-17T00:53:32.696Z,4.20
2019-01-17T00:56:05.890Z,4.10
2019-01-17T00:58:54.648Z,4.20
2019-01-17T01:01:40.944Z,4.20
2019-01-17T01:04:11.054Z,4.10
2019-01-17T01:06:57.296Z,4.10
2019-01-17T01:09:27.453Z,4.10
2019-01-17T01:11:57.612Z,4.00
2019-01-17T01:14:27.981Z,3.90
2019-01-17T01:16:59.222Z,3.90
2019-01-17T01:19:45.968Z,3.90
2019-01-17T01:22:32.406Z,3.80
2019-01-17T01:25:14.915Z,3.70
2019-01-17T01:28:01.695Z,3.80
2019-01-17T01:30:46.571Z,3.80
2019-01-17T01:33:35.037Z,3.90
2019-01-17T01:36:17.366Z,3.90
2019-01-17T01:38:53.369Z,3.80
2019-01-17T01:41:23.583Z,3.70
2019-01-17T01:44:11.781Z,3.70
2019-01-17T01:46:42.026Z,3.70
2019-01-17T01:49:17.830Z,3.60
2019-01-17T01:52:04.206Z,3.60
2019-01-17T01:54:32.804Z,3.60
2019-01-17T01:57:01.282Z,3.60
2019-01-17T01:59:29.957Z,3.60
2019-01-17T02:01:58.550Z,3.60
2019-01-17T02:04:27.165Z,3.60
2019-01-17T02:06:55.668Z,3.70
2019-01-17T02:09:24.300Z,3.70
2019-01-17T02:11:52.989Z,3.60
2019-01-17T02:14:21.664Z,3.60
2019-01-17T02:16:50.200Z,3.70
2019-01-17T02:19:18.736Z,3.70
2019-01-17T02:21:47.276Z,3.80
2019-01-17T02:24:15.847Z,3.80
2019-01-17T02:26:44.566Z,3.80
2019-01-17T02:29:13.226Z,3.90
2019-01-17T02:31:41.930Z,3.90
2019-01-17T02:34:10.522Z,4.00
2019-01-17T02:36:39.143Z,4.10
2019-01-17T02:39:08.163Z,4.20
2019-01-17T02:41:36.728Z,4.20
2019-01-17T02:44:05.318Z,4.30
2019-01-17T02:46:33.984Z,4.20
2019-01-17T02:49:02.500Z,4.20
2019-01-17T02:51:31.218Z,4.20
2019-01-17T02:53:59.713Z,4.20
2019-01-17T02:56:28.399Z,4.20
2019-01-17T02:58:57.303Z,4.20
2019-01-17T03:01:25.920Z,4.30
2019-01-17T03:03:54.598Z,4.40
2019-01-17T03:06:23.285Z,4.40
2019-01-17T03:08:51.777Z,4.50
2019-01-17T03:11:20.435Z,4.50
2019-01-17T03:13:49.138Z,4.50
2019-01-17T03:16:17.762Z,4.60
2019-01-17T03:18:46.228Z,4.50
2019-01-17T03:21:14.821Z,4.50
2019-01-17T03:23:43.408Z,4.40
2019-01-17T03:26:11.902Z,4.30
2019-01-17T03:28:40.682Z,4.20
2019-01-17T03:31:09.283Z,4.10
2019-01-17T03:33:38.105Z,4.10
2019-01-17T03:36:06.762Z,4.20
2019-01-17T03:38:35.347Z,4.20
2019-01-17T03:41:03.795Z,4.30
2019-01-17T03:43:32.339Z,4.30
2019-01-17T03:46:01.067Z,4.30
2019-01-17T03:48:29.532Z,4.30
2019-01-17T03:50:58.145Z,4.40
2019-01-17T03:53:26.743Z,4.40
2019-01-17T03:55:55.517Z,4.50
2019-01-17T03:58:24.188Z,4.50
2019-01-17T04:00:52.569Z,4.60
2019-01-17T04:03:21.019Z,4.70
2019-01-17T04:05:49.774Z,4.60
2019-01-17T04:08:18.364Z,4.60
2019-01-17T04:10:46.875Z,4.60
2019-01-17T04:13:15.445Z,4.70
2019-01-17T04:15:44.084Z,4.70
2019-01-17T04:18:12.624Z,4.80
2019-01-17T04:20:41.175Z,4.80
2019-01-17T04:23:09.699Z,4.90
2019-01-17T04:25:38.296Z,4.90
2019-01-17T04:28:06.928Z,4.90
2019-01-17T04:30:35.646Z,5.00
2019-01-17T04:33:04.271Z,5.10
2019-01-17T04:35:32.913Z,5.10
2019-01-17T04:38:01.421Z,5.10
2019-01-17T04:40:29.897Z,5.20
2019-01-17T04:42:58.447Z,5.20
2019-01-17T04:45:27.012Z,5.20
2019-01-17T04:47:55.505Z,5.10
2019-01-17T04:50:24.181Z,5.10
2019-01-17T04:52:52.762Z,5.10
2019-01-17T04:55:21.469Z,5.00
2019-01-17T04:57:49.954Z,5.00
2019-01-17T05:00:20.001Z,5.00
2019-01-17T05:02:48.599Z,5.00
2019-01-17T05:05:17.327Z,5.00
2019-01-17T05:07:45.738Z,5.00
2019-01-17T05:10:16.154Z,4.90
2019-01-17T05:12:44.760Z,4.90
2019-01-17T05:15:13.903Z,4.90
2019-01-17T05:17:42.593Z,4.90
2019-01-17T05:20:13.364Z,4.90
2019-01-17T05:22:42.055Z,4.80
2019-01-17T05:25:12.744Z,4.80
2019-01-17T05:27:40.894Z,4.80
2019-01-17T05:30:12.616Z,4.80
2019-01-17T05:32:41.181Z,4.80
2019-01-17T05:35:09.777Z,4.80
2019-01-17T05:37:38.245Z,4.90
2019-01-17T05:40:18.137Z,4.80
2019-01-17T05:42:46.752Z,4.80
2019-01-17T05:45:15.488Z,4.70
2019-01-17T05:47:44.106Z,4.70
2019-01-17T05:50:14.925Z,4.70
2019-01-17T05:52:43.539Z,4.60
2019-01-17T05:55:12.019Z,4.50
2019-01-17T05:57:40.514Z,4.40
2019-01-17T06:00:14.451Z,4.50
2019-01-17T06:02:43.106Z,4.40
2019-01-17T06:05:11.786Z,4.70
2019-01-17T06:07:40.435Z,5.00
2019-01-17T06:10:11.278Z,5.10
2019-01-17T06:12:39.882Z,5.30
2019-01-17T06:15:13.371Z,5.40
2019-01-17T06:17:42.044Z,5.50
2019-01-17T06:20:13.714Z,5.50
2019-01-17T06:22:42.209Z,5.40
2019-01-17T06:25:10.855Z,5.40
2019-01-17T06:27:39.441Z,5.40
2019-01-17T06:30:15.286Z,5.40
2019-01-17T06:32:43.870Z,5.40
2019-01-17T06:35:12.612Z,5.50
2019-01-17T06:37:41.169Z,5.50
2019-01-17T06:40:15.604Z,5.50
2019-01-17T06:42:44.284Z,5.40
2019-01-17T06:45:12.844Z,5.40
2019-01-17T06:47:41.453Z,5.40
2019-01-17T06:50:10.828Z,5.40
2019-01-17T06:52:39.438Z,5.40
2019-01-17T06:55:08.549Z,5.50
2019-01-17T06:57:37.371Z,5.50
2019-01-17T07:00:11.542Z,5.50
2019-01-17T07:02:40.084Z,5.50
2019-01-17T07:05:09.096Z,5.50
2019-01-17T07:07:37.606Z,5.60
2019-01-17T07:10:09.323Z,5.70
2019-01-17T07:12:37.798Z,5.70
2019-01-17T07:15:08.397Z,5.80
2019-01-17T07:17:36.874Z,5.70
2019-01-17T07:20:13.772Z,5.70
2019-01-17T07:22:42.601Z,5.80
2019-01-17T07:25:12.231Z,5.70
2019-01-17T07:27:40.755Z,5.70
2019-01-17T07:30:15.106Z,5.70
2019-01-17T07:32:43.737Z,5.80
2019-01-17T07:35:12.219Z,5.70
2019-01-17T07:37:40.773Z,5.80
2019-01-17T07:40:10.415Z,5.80
2019-01-17T07:42:38.945Z,5.80
2019-01-17T07:45:13.623Z,5.80
2019-01-17T07:47:42.191Z,5.80
2019-01-17T07:50:11.206Z,5.80
2019-01-17T07:52:39.889Z,5.90
2019-01-17T07:55:09.515Z,5.90
2019-01-17T07:57:38.176Z,5.90
2019-01-17T08:00:18.099Z,6.00
2019-01-17T08:02:46.780Z,6.00
2019-01-17T08:05:15.294Z,6.00
2019-01-17T08:07:44.005Z,6.00
2019-01-17T08:10:15.461Z,6.00
2019-01-17T08:12:44.034Z,6.00
2019-01-17T08:15:13.771Z,6.00
2019-01-17T08:17:42.428Z,6.00
2019-01-17T08:20:14.367Z,6.10
2019-01-17T08:22:42.880Z,6.10
2019-01-17T08:25:12.260Z,6.10
2019-01-17T08:27:40.712Z,6.10
2019-01-17T08:30:15.109Z,6.20
2019-01-17T08:32:43.724Z,6.10
2019-01-17T08:35:12.402Z,6.20
2019-01-17T08:37:41.132Z,6.20
2019-01-17T08:40:27.508Z,6.20
2019-01-17T08:42:56.141Z,6.30
2019-01-17T08:45:24.824Z,6.40
2019-01-17T08:47:53.352Z,6.50
2019-01-17T08:50:21.917Z,6.60
2019-01-17T08:52:50.468Z,6.60
2019-01-17T08:55:18.958Z,6.60
2019-01-17T08:57:47.528Z,6.60
2019-01-17T09:00:18.827Z,6.70
2019-01-17T09:02:47.312Z,6.70
2019-01-17T09:05:15.904Z,6.70
2019-01-17T09:07:44.456Z,6.70
2019-01-17T09:10:18.673Z,6.70
2019-01-17T09:12:47.397Z,6.70
2019-01-17T09:15:18.835Z,6.70
2019-01-17T09:17:47.292Z,6.70
2019-01-17T09:20:15.857Z,6.70
2019-01-17T09:22:44.418Z,6.70
2019-01-17T09:25:14.813Z,6.70
2019-01-17T09:27:43.439Z,6.70
2019-01-17T09:30:17.042Z,6.80
2019-01-17T09:32:45.694Z,6.80
2019-01-17T09:35:15.486Z,6.90
2019-01-17T09:37:44.052Z,6.90
2019-01-17T09:40:14.792Z,7.00
2019-01-17T09:42:43.461Z,7.10
2019-01-17T09:45:12.011Z,7.30
2019-01-17T09:47:41.652Z,7.40
2019-01-17T09:50:16.139Z,7.70
2019-01-17T09:52:44.661Z,8.10
2019-01-17T09:55:13.207Z,8.40
2019-01-17T09:57:41.910Z,8.80
2019-01-17T10:00:16.516Z,9.20
2019-01-17T10:02:44.946Z,9.40
2019-01-17T10:05:13.481Z,9.50
2019-01-17T10:07:41.956Z,9.60
2019-01-17T10:10:13.415Z,9.50
2019-01-17T10:12:41.925Z,9.40
2019-01-17T10:15:14.066Z,9.20
2019-01-17T10:17:45.909Z,8.90
2019-01-17T10:20:20.617Z,8.70
2019-01-17T10:22:55.326Z,8.50
2019-01-17T10:25:35.958Z,8.40
2019-01-17T10:28:19.865Z,8.20
2019-01-17T10:30:57.466Z,8.10
2019-01-17T10:33:32.168Z,8.10
2019-01-17T10:36:15.866Z,8.00
2019-01-17T10:38:56.345Z,8.00
2019-01-17T10:41:37.124Z,8.10
2019-01-17T10:44:29.551Z,8.00
2019-01-17T10:47:24.450Z,8.10
2019-01-17T10:49:58.838Z,8.20
2019-01-17T10:52:41.941Z,8.30
2019-01-17T10:55:47.201Z,8.40
2019-01-17T10:58:19.007Z,8.30
2019-01-17T11:00:56.333Z,8.60
2019-01-17T11:03:36.926Z,8.70
2019-01-17T11:06:11.485Z,9.00
2019-01-17T11:08:49.372Z,9.30
2019-01-17T11:11:24.195Z,9.40
2019-01-17T11:13:58.807Z,9.50
2019-01-17T11:16:33.568Z,9.50
2019-01-17T11:19:23.935Z,9.70
2019-01-17T11:22:24.719Z,9.80
2019-01-17T11:25:13.239Z,9.80
2019-01-17T11:27:45.063Z,9.70
2019-01-17T11:30:22.518Z,9.60
2019-01-17T11:33:13.737Z,9.60
2019-01-17T11:36:17.659Z,9.70
2019-01-17T11:39:13.348Z,10.10
2019-01-17T11:41:53.789Z,10.10
2019-01-17T11:44:31.222Z,9.70
2019-01-17T11:47:14.860Z,9.40
2019-01-17T11:50:03.355Z,9.20
2019-01-17T11:53:04.174Z,9.00
2019-01-17T11:55:41.487Z,8.70
2019-01-17T11:58:21.927Z,8.80
2019-01-17T12:01:28.964Z,8.70
2019-01-17T12:04:18.553Z,8.60
2019-01-17T12:06:47.303Z,8.60
2019-01-17T12:09:15.826Z,8.60
2019-01-17T12:11:44.369Z,8.40
2019-01-17T12:14:12.966Z,8.40
2019-01-17T12:16:41.531Z,8.40
2019-01-17T12:19:10.024Z,8.30
2019-01-17T12:21:38.748Z,8.30
2019-01-17T12:24:07.267Z,8.30
2019-01-17T12:26:35.797Z,8.20
2019-01-17T12:29:04.447Z,8.20
2019-01-17T12:31:32.873Z,8.20
2019-01-17T12:34:01.391Z,8.10
2019-01-17T12:36:29.884Z,8.10
2019-01-17T12:38:58.391Z,8.20
2019-01-17T12:41:26.969Z,8.20
2019-01-17T12:43:55.493Z,8.10
2019-01-17T12:46:24.000Z,8.10
2019-01-17T12:48:52.659Z,8.10
2019-01-17T12:51:21.287Z,8.00
2019-01-17T12:53:49.901Z,8.00
2019-01-17T12:56:18.494Z,8.00
2019-01-17T12:58:47.098Z,8.00
2019-01-17T13:01:16.153Z,8.00
2019-01-17T13:03:44.709Z,8.00
2019-01-17T13:06:13.389Z,8.00
2019-01-17T13:08:42.011Z,7.90
2019-01-17T13:11:10.638Z,7.90
2019-01-17T13:13:39.114Z,7.80
2019-01-17T13:16:07.675Z,7.90
2019-01-17T13:18:36.212Z,7.80
2019-01-17T13:21:04.797Z,7.80
2019-01-17T13:23:33.474Z,7.70
2019-01-17T13:26:02.239Z,7.80
2019-01-17T13:28:30.856Z,7.70
2019-01-17T13:30:59.321Z,7.70
2019-01-17T13:33:27.911Z,7.60
2019-01-17T13:35:56.786Z,7.70
2019-01-17T13:38:25.554Z,7.60
2019-01-17T13:40:54.256Z,7.60
2019-01-17T13:43:24.015Z,7.60
2019-01-17T13:45:52.688Z,7.70
2019-01-17T13:48:21.147Z,7.70
2019-01-17T13:50:49.845Z,7.70
2019-01-17T13:53:19.033Z,7.70
2019-01-17T13:55:47.847Z,7.70
2019-01-17T13:58:16.821Z,7.70
2019-01-17T14:00:45.439Z,7.70
2019-01-17T14:03:13.932Z,7.70
2019-01-17T14:05:42.616Z,7.60
2019-01-17T14:08:11.475Z,7.60
2019-01-17T14:10:40.049Z,7.60
2019-01-17T14:13:08.858Z,7.60
2019-01-17T14:15:38.692Z,7.50
2019-01-17T14:18:07.247Z,7.50
2019-01-17T14:20:36.086Z,7.50
2019-01-17T14:23:05.255Z,7.40
2019-01-17T14:25:34.080Z,7.30
2019-01-17T14:28:03.403Z,7.30
2019-01-17T14:30:34.628Z,7.30
2019-01-17T14:33:03.726Z,7.30
2019-01-17T14:35:32.758Z,7.30
2019-01-17T14:38:01.495Z,7.20
2019-01-17T14:40:30.224Z,7.20
2019-01-17T14:42:59.000Z,7.10
2019-01-17T14:45:27.527Z,7.10
2019-01-17T14:47:56.531Z,7.00
2019-01-17T14:50:27.920Z,7.00
2019-01-17T14:52:56.445Z,7.00
2019-01-17T14:55:24.899Z,7.00
2019-01-17T14:57:53.682Z,6.90
2019-01-17T15:00:25.573Z,6.80
2019-01-17T15:02:54.184Z,6.80
2019-01-17T15:05:23.050Z,6.70
2019-01-17T15:07:51.747Z,6.70
2019-01-17T15:10:39.512Z,6.60
2019-01-17T15:13:08.157Z,6.60
2019-01-17T15:15:41.147Z,6.50
2019-01-17T15:18:15.664Z,6.50
2019-01-17T15:20:44.492Z,6.40
2019-01-17T15:23:13.537Z,6.50
2019-01-17T15:25:44.229Z,6.40
2019-01-17T15:28:13.298Z,6.40
2019-01-17T15:30:42.129Z,6.40
2019-01-17T15:33:10.858Z,6.40
2019-01-17T15:35:39.446Z,6.40
2019-01-17T15:38:08.099Z,6.50
2019-01-17T15:40:36.825Z,6.50
2019-01-17T15:43:05.444Z,6.60
2019-01-17T15:45:34.076Z,6.70
2019-01-17T15:48:02.671Z,6.80
2019-01-17T15:50:31.297Z,6.80
2019-01-17T15:52:59.859Z,6.90
2019-01-17T15:55:28.573Z,6.90
2019-01-17T15:57:57.581Z,6.90
2019-01-17T16:00:28.341Z,7.00
2019-01-17T16:02:57.044Z,6.90
2019-01-17T16:05:26.258Z,6.90
2019-01-17T16:07:54.835Z,6.90
2019-01-17T16:10:23.361Z,6.80
2019-01-17T16:12:51.998Z,6.80
2019-01-17T16:15:22.691Z,6.70
2019-01-17T16:17:51.309Z,6.70
2019-01-17T16:20:20.102Z,6.70
2019-01-17T16:22:48.743Z,6.60
2019-01-17T16:25:17.790Z,6.60
2019-01-17T16:27:52.760Z,6.60
2019-01-17T16:30:19.637Z,6.50
2019-01-17T16:32:48.239Z,6.40
2019-01-17T16:35:16.700Z,6.40
2019-01-17T16:37:45.231Z,6.30
2019-01-17T16:40:14.514Z,6.30
2019-01-17T16:42:42.996Z,6.30
2019-01-17T16:45:14.603Z,6.20
2019-01-17T16:47:44.878Z,6.20
2019-01-17T16:50:16.390Z,6.10
2019-01-17T16:52:44.881Z,6.10
2019-01-17T16:55:14.271Z,6.10
2019-01-17T16:57:48.966Z,6.00
2019-01-17T17:00:15.975Z,6.00
2019-01-17T17:02:44.626Z,6.10
2019-01-17T17:05:13.267Z,6.10
2019-01-17T17:07:41.898Z,6.10
2019-01-17T17:10:13.010Z,6.10
2019-01-17T17:12:41.567Z,6.10
2019-01-17T17:15:10.395Z,6.20
2019-01-17T17:17:38.913Z,6.20
2019-01-17T17:20:16.034Z,6.20
2019-01-17T17:22:44.713Z,6.20
2019-01-17T17:25:13.344Z,6.30
2019-01-17T17:27:41.839Z,6.40
2019-01-17T17:30:16.083Z,6.40
2019-01-17T17:32:44.666Z,6.50
2019-01-17T17:35:13.219Z,6.50
2019-01-17T17:37:41.755Z,6.60
2019-01-17T17:40:13.599Z,6.60
2019-01-17T17:42:42.162Z,6.70
2019-01-17T17:45:12.011Z,6.70
2019-01-17T17:47:40.678Z,6.80
2019-01-17T17:50:12.699Z,6.80
2019-01-17T17:52:41.367Z,6.80
2019-01-17T17:55:12.825Z,6.80
2019-01-17T17:57:41.381Z,6.80
2019-01-17T18:00:13.790Z,6.80
2019-01-17T18:02:42.670Z,6.80
2019-01-17T18:05:11.210Z,6.80
2019-01-17T18:07:39.774Z,6.80
2019-01-17T18:10:14.303Z,6.70
2019-01-17T18:12:42.711Z,6.70
2019-01-17T18:15:13.986Z,6.70
2019-01-17T18:17:42.493Z,6.60
2019-01-17T18:20:15.157Z,6.60
2019-01-17T18:22:43.790Z,6.50
2019-01-17T18:25:12.713Z,6.40
2019-01-17T18:27:41.316Z,6.40
2019-01-17T18:30:24.395Z,6.30
2019-01-17T18:32:52.921Z,6.30
2019-01-17T18:35:21.568Z,6.20
2019-01-17T18:37:50.300Z,6.20
2019-01-17T18:40:20.265Z,6.20
2019-01-17T18:42:48.971Z,6.10
2019-01-17T18:45:25.659Z,6.10
2019-01-17T18:47:54.291Z,6.00
2019-01-17T18:50:29.108Z,6.00
2019-01-17T18:52:58.560Z,6.00
2019-01-17T18:55:27.229Z,6.00
2019-01-17T18:57:55.815Z,6.00
2019-01-17T19:00:28.398Z,6.00
2019-01-17T19:02:57.688Z,6.00
2019-01-17T19:05:26.644Z,5.90
2019-01-17T19:07:55.360Z,5.90
2019-01-17T19:10:24.010Z,5.90
2019-01-17T19:12:52.516Z,5.90
2019-01-17T19:15:23.789Z,5.90
2019-01-17T19:17:52.500Z,6.00
2019-01-17T19:20:21.554Z,6.20
2019-01-17T19:22:50.117Z,6.30
2019-01-17T19:25:18.531Z,6.40
2019-01-17T19:27:47.208Z,6.50
2019-01-17T19:30:20.620Z,6.60
2019-01-17T19:32:49.169Z,6.70
2019-01-17T19:35:18.089Z,6.70
2019-01-17T19:37:48.023Z,6.80
2019-01-17T19:40:18.669Z,6.80
2019-01-17T19:42:47.168Z,6.70
2019-01-17T19:45:16.434Z,6.70
2019-01-17T19:47:45.007Z,6.60
2019-01-17T19:50:21.568Z,6.60
2019-01-17T19:52:50.167Z,6.40
2019-01-17T19:55:18.637Z,6.40
2019-01-17T19:57:47.078Z,6.20
2019-01-17T20:00:20.026Z,6.10
2019-01-17T20:02:48.587Z,6.10
2019-01-17T20:05:19.713Z,6.00
2019-01-17T20:07:48.213Z,6.00
2019-01-17T20:10:22.744Z,6.00
2019-01-17T20:12:51.346Z,6.00
2019-01-17T20:15:21.276Z,6.00
2019-01-17T20:17:50.167Z,6.00
2019-01-17T20:20:19.151Z,5.90
2019-01-17T20:22:47.629Z,5.90
2019-01-17T20:25:16.149Z,5.90
2019-01-17T20:27:44.673Z,5.70
2019-01-17T20:30:22.032Z,5.70
2019-01-17T20:32:50.904Z,5.60
2019-01-17T20:35:19.351Z,5.60
2019-01-17T20:37:47.813Z,5.50
2019-01-17T20:40:21.005Z,5.50
2019-01-17T20:42:49.471Z,5.50
2019-01-17T20:45:18.076Z,5.50
2019-01-17T20:47:46.596Z,5.50
2019-01-17T20:50:20.589Z,5.50
2019-01-17T20:52:49.683Z,5.40
2019-01-17T20:55:18.290Z,5.40
2019-01-17T20:57:48.778Z,5.40
2019-01-17T21:00:29.232Z,5.40
2019-01-17T21:02:58.091Z,5.50
2019-01-17T21:05:27.413Z,5.40
2019-01-17T21:07:56.233Z,5.40
2019-01-17T21:10:24.873Z,5.40
2019-01-17T21:12:53.528Z,5.40
2019-01-17T21:15:22.749Z,5.40
2019-01-17T21:17:51.432Z,5.30
2019-01-17T21:20:20.763Z,5.40
2019-01-17T21:22:49.591Z,5.40
2019-01-17T21:25:19.391Z,5.50
2019-01-17T21:27:48.208Z,5.50
2019-01-17T21:30:25.033Z,5.60
2019-01-17T21:32:53.899Z,5.60
2019-01-17T21:35:22.645Z,5.60
2019-01-17T21:37:51.313Z,5.60
2019-01-17T21:40:21.744Z,5.60
2019-01-17T21:42:50.648Z,5.70
2019-01-17T21:45:19.664Z,5.80
2019-01-17T21:47:48.191Z,5.80
2019-01-17T21:50:28.436Z,5.80
2019-01-17T21:52:57.758Z,5.70
2019-01-17T21:55:26.538Z,5.60
2019-01-17T21:57:55.166Z,5.50
2019-01-17T22:00:26.265Z,5.50
2019-01-17T22:02:54.839Z,5.50
2019-01-17T22:05:23.767Z,5.40
2019-01-17T22:07:52.398Z,5.30
2019-01-17T22:10:21.122Z,5.30
2019-01-17T22:12:49.915Z,5.30
2019-01-17T22:15:24.515Z,5.30
2019-01-17T22:17:53.805Z,5.30
2019-01-17T22:20:22.396Z,5.40
2019-01-17T22:22:51.195Z,5.50
2019-01-17T22:25:20.971Z,5.50
2019-01-17T22:27:51.595Z,5.50
2019-01-17T22:30:22.401Z,5.40
2019-01-17T22:32:50.979Z,5.40
2019-01-17T22:35:19.618Z,5.30
2019-01-17T22:37:48.180Z,5.30
2019-01-17T22:40:17.425Z,5.20
2019-01-17T22:42:46.309Z,5.10
2019-01-17T22:45:17.527Z,5.00
2019-01-17T22:47:46.047Z,4.80
2019-01-17T22:50:16.753Z,4.70
2019-01-17T22:52:45.423Z,4.60
2019-01-17T22:55:14.370Z,4.60
2019-01-17T22:57:42.898Z,4.60
2019-01-17T23:00:51.053Z,4.70
2019-01-17T23:03:21.772Z,4.70
2019-01-17T23:05:50.412Z,4.80
2019-01-17T23:08:19.060Z,4.80
2019-01-17T23:10:47.646Z,4.90
2019-01-17T23:13:16.169Z,4.90
2019-01-17T23:15:44.829Z,5.10
2019-01-17T23:18:13.326Z,5.20
2019-01-17T23:20:41.797Z,5.30
2019-01-17T23:23:10.306Z,5.20
2019-01-17T23:25:38.929Z,5.20
2019-01-17T23:28:08.358Z,5.30
2019-01-17T23:30:36.846Z,5.40
2019-01-17T23:33:05.460Z,5.30
2019-01-17T23:35:34.009Z,5.30
2019-01-17T23:38:02.642Z,5.20
2019-01-17T23:40:31.223Z,5.20
2019-01-17T23:42:59.849Z,5.10
2019-01-17T23:45:28.724Z,4.90
2019-01-17T23:47:57.349Z,4.90
2019-01-17T23:50:25.906Z,4.80
2019-01-17T23:52:54.502Z,4.80
2019-01-17T23:55:22.913Z,4.70
2019-01-17T23:57:51.534Z,4.70
